createdAt,value
2018-07-17T00:00:04.966Z,3.63
2018-07-17T00:02:33.516Z,4.27
2018-07-17T00:05:02.206Z,4.60
2018-07-17T00:07:30.736Z,4.80
2018-07-17T00:09:59.214Z,4.70
2018-07-17T00:12:27.708Z,5.30
2018-07-17T00:14:56.180Z,5.20
2018-07-17T00:17:24.661Z,6.07
2018-07-17T00:19:53.345Z,5.20
2018-07-17T00:22:21.787Z,6.13
2018-07-17T00:24:50.246Z,6.70
2018-07-17T00:27:18.750Z,7.40
2018-07-17T00:29:46.836Z,7.97
2018-07-17T00:32:14.955Z,5.30
2018-07-17T00:34:43.386Z,7.13
2018-07-17T00:37:11.557Z,6.50
2018-07-17T00:39:40.065Z,5.37
2018-07-17T00:42:08.800Z,5.33
2018-07-17T00:44:37.281Z,4.53
2018-07-17T00:47:05.922Z,5.77
2018-07-17T00:49:35.008Z,5.20
2018-07-17T00:52:03.522Z,4.70
2018-07-17T00:54:32.277Z,5.27
2018-07-17T00:57:00.809Z,4.97
2018-07-17T00:59:29.281Z,4.93
2018-07-17T01:02:03.181Z,5.50
2018-07-17T01:04:37.204Z,5.70
2018-07-17T01:07:11.187Z,5.90
2018-07-17T01:09:44.993Z,5.20
2018-07-17T01:12:18.730Z,5.60
2018-07-17T01:14:56.169Z,6.00
2018-07-17T01:17:25.488Z,6.30
2018-07-17T01:19:54.047Z,4.27
2018-07-17T01:22:22.681Z,5.47
2018-07-17T01:24:51.165Z,4.40
2018-07-17T01:27:19.641Z,4.30
2018-07-17T01:29:48.065Z,4.47
2018-07-17T01:32:16.518Z,5.00
2018-07-17T01:34:44.657Z,4.70
2018-07-17T01:37:13.189Z,5.47
2018-07-17T01:39:41.648Z,5.00
2018-07-17T01:42:10.216Z,4.93
2018-07-17T01:44:38.708Z,4.80
2018-07-17T01:47:07.172Z,4.30
2018-07-17T01:49:35.697Z,4.53
2018-07-17T01:52:04.220Z,4.90
2018-07-17T01:54:33.433Z,5.43
2018-07-17T01:57:01.842Z,4.87
2018-07-17T01:59:30.295Z,5.07
2018-07-17T02:01:58.786Z,5.53
2018-07-17T02:04:27.277Z,5.37
2018-07-17T02:06:55.713Z,4.80
2018-07-17T02:09:24.158Z,4.40
2018-07-17T02:11:52.905Z,5.10
2018-07-17T02:14:21.577Z,5.50
2018-07-17T02:16:50.056Z,5.50
2018-07-17T02:19:18.587Z,6.17
2018-07-17T02:21:47.081Z,5.73
2018-07-17T02:24:15.537Z,7.47
2018-07-17T02:26:44.054Z,5.97
2018-07-17T02:29:12.481Z,5.43
2018-07-17T02:31:40.934Z,5.00
2018-07-17T02:34:09.425Z,5.50
2018-07-17T02:36:38.133Z,5.07
2018-07-17T02:39:07.754Z,4.30
2018-07-17T02:41:35.999Z,5.70
2018-07-17T02:44:04.472Z,5.87
2018-07-17T02:46:33.340Z,5.03
2018-07-17T02:49:01.972Z,4.60
2018-07-17T02:51:30.468Z,4.10
2018-07-17T02:53:59.141Z,6.77
2018-07-17T02:56:27.726Z,6.27
2018-07-17T02:58:56.653Z,6.37
2018-07-17T03:01:25.126Z,7.10
2018-07-17T03:03:53.807Z,6.10
2018-07-17T03:06:22.402Z,6.70
2018-07-17T03:08:51.163Z,6.73
2018-07-17T03:11:19.487Z,7.30
2018-07-17T03:13:47.965Z,5.60
2018-07-17T03:16:16.513Z,5.97
2018-07-17T03:18:44.965Z,5.90
2018-07-17T03:21:13.400Z,6.23
2018-07-17T03:23:41.873Z,5.90
2018-07-17T03:26:10.362Z,8.00
2018-07-17T03:28:38.831Z,5.33
2018-07-17T03:31:07.789Z,6.47
2018-07-17T03:33:36.320Z,5.87
2018-07-17T03:36:04.891Z,5.70
2018-07-17T03:38:33.502Z,6.27
2018-07-17T03:41:01.945Z,4.90
2018-07-17T03:43:30.364Z,5.77
2018-07-17T03:45:58.937Z,7.47
2018-07-17T03:48:27.397Z,6.57
2018-07-17T03:50:55.983Z,5.20
2018-07-17T03:53:24.485Z,5.77
2018-07-17T03:55:53.023Z,7.40
2018-07-17T03:58:21.492Z,6.37
2018-07-17T04:00:50.029Z,6.70
2018-07-17T04:03:18.461Z,6.53
2018-07-17T04:05:47.098Z,5.53
2018-07-17T04:08:15.630Z,6.83
2018-07-17T04:10:44.100Z,6.93
2018-07-17T04:13:12.602Z,7.17
2018-07-17T04:15:41.196Z,6.57
2018-07-17T04:18:10.023Z,6.33
2018-07-17T04:20:38.565Z,6.77
2018-07-17T04:23:07.149Z,6.50
2018-07-17T04:25:35.620Z,6.83
2018-07-17T04:28:04.109Z,6.20
2018-07-17T04:30:32.598Z,6.17
2018-07-17T04:33:01.064Z,6.03
2018-07-17T04:35:29.572Z,6.13
2018-07-17T04:37:58.049Z,6.83
2018-07-17T04:40:26.867Z,6.63
2018-07-17T04:42:55.308Z,6.07
2018-07-17T04:45:23.961Z,7.13
2018-07-17T04:47:52.399Z,5.77
2018-07-17T04:50:20.919Z,7.23
2018-07-17T04:52:49.469Z,7.37
2018-07-17T04:55:17.961Z,6.53
2018-07-17T04:57:47.226Z,7.13
2018-07-17T05:00:15.718Z,7.40
2018-07-17T05:02:44.149Z,6.20
2018-07-17T05:05:12.681Z,7.67
2018-07-17T05:07:41.182Z,8.17
2018-07-17T05:10:10.448Z,7.20
2018-07-17T05:12:38.921Z,5.87
2018-07-17T05:15:07.727Z,6.10
2018-07-17T05:17:36.342Z,6.30
2018-07-17T05:20:05.582Z,7.47
2018-07-17T05:22:34.061Z,6.03
2018-07-17T05:25:02.549Z,8.47
2018-07-17T05:27:31.138Z,8.33
2018-07-17T05:29:59.613Z,6.67
2018-07-17T05:32:28.140Z,6.83
2018-07-17T05:34:56.689Z,7.27
2018-07-17T05:37:25.138Z,6.97
2018-07-17T05:39:53.584Z,6.73
2018-07-17T05:42:22.109Z,7.97
2018-07-17T05:44:50.615Z,6.77
2018-07-17T05:47:19.084Z,6.27
2018-07-17T05:49:47.541Z,5.67
2018-07-17T05:52:16.066Z,6.10
2018-07-17T05:54:44.985Z,6.87
2018-07-17T05:57:13.511Z,6.57
2018-07-17T05:59:41.730Z,6.80
2018-07-17T06:02:11.472Z,7.00
2018-07-17T06:04:39.698Z,5.83
2018-07-17T06:07:08.152Z,6.43
2018-07-17T06:09:36.688Z,5.67
2018-07-17T06:12:06.001Z,6.30
2018-07-17T06:14:34.483Z,6.40
2018-07-17T06:17:03.151Z,6.63
2018-07-17T06:19:32.019Z,6.90
2018-07-17T06:22:00.721Z,6.27
2018-07-17T06:24:29.185Z,7.50
2018-07-17T06:26:57.620Z,6.70
2018-07-17T06:29:26.062Z,6.10
2018-07-17T06:31:54.670Z,6.20
2018-07-17T06:34:23.200Z,5.80
2018-07-17T06:36:51.678Z,5.40
2018-07-17T06:39:20.185Z,5.37
2018-07-17T06:41:48.790Z,5.30
2018-07-17T06:44:17.314Z,7.20
2018-07-17T06:46:46.449Z,7.00
2018-07-17T06:49:14.877Z,6.20
2018-07-17T06:51:43.034Z,6.20
2018-07-17T06:54:11.757Z,6.30
2018-07-17T06:56:40.262Z,5.17
2018-07-17T06:59:08.718Z,4.97
2018-07-17T07:01:37.244Z,5.57
2018-07-17T07:04:05.853Z,6.20
2018-07-17T07:06:34.342Z,5.90
2018-07-17T07:09:02.893Z,5.40
2018-07-17T07:11:31.386Z,6.07
2018-07-17T07:13:59.895Z,6.07
2018-07-17T07:16:28.054Z,5.93
2018-07-17T07:18:56.477Z,6.80
2018-07-17T07:21:25.230Z,7.17
2018-07-17T07:23:53.774Z,6.40
2018-07-17T07:26:22.450Z,5.70
2018-07-17T07:28:50.918Z,6.00
2018-07-17T07:31:19.414Z,6.37
2018-07-17T07:33:47.956Z,4.70
2018-07-17T07:36:16.665Z,5.50
2018-07-17T07:38:45.127Z,5.20
2018-07-17T07:41:13.669Z,5.50
2018-07-17T07:43:42.139Z,4.90
2018-07-17T07:46:10.847Z,4.90
2018-07-17T07:48:39.259Z,5.23
2018-07-17T07:51:07.704Z,5.57
2018-07-17T07:53:36.210Z,5.20
2018-07-17T07:56:04.723Z,4.87
2018-07-17T07:58:33.215Z,5.80
2018-07-17T08:01:01.730Z,5.90
2018-07-17T08:03:30.967Z,6.10
2018-07-17T08:05:59.755Z,6.10
2018-07-17T08:08:28.219Z,5.43
2018-07-17T08:10:56.758Z,6.47
2018-07-17T08:13:25.306Z,6.53
2018-07-17T08:15:53.839Z,8.50
2018-07-17T08:18:22.374Z,7.93
2018-07-17T08:20:50.785Z,7.10
2018-07-17T08:23:19.200Z,6.20
2018-07-17T08:25:47.386Z,6.70
2018-07-17T08:28:16.169Z,4.57
2018-07-17T08:30:44.264Z,5.27
2018-07-17T08:33:12.790Z,5.20
2018-07-17T08:35:41.211Z,4.50
2018-07-17T08:38:09.664Z,5.00
2018-07-17T08:40:38.129Z,4.93
2018-07-17T08:43:09.202Z,4.67
2018-07-17T08:45:37.719Z,4.63
2018-07-17T08:48:06.842Z,4.60
2018-07-17T08:50:35.891Z,4.60
2018-07-17T08:53:04.428Z,4.70
2018-07-17T08:55:32.933Z,4.83
2018-07-17T08:58:01.510Z,4.50
2018-07-17T09:00:30.018Z,4.93
2018-07-17T09:02:58.550Z,5.07
2018-07-17T09:05:27.088Z,5.90
2018-07-17T09:07:55.611Z,6.53
2018-07-17T09:10:24.113Z,6.27
2018-07-17T09:12:52.788Z,6.40
2018-07-17T09:15:21.288Z,6.20
2018-07-17T09:17:49.752Z,5.00
2018-07-17T09:20:18.213Z,4.90
2018-07-17T09:22:46.713Z,4.63
2018-07-17T09:25:15.182Z,4.37
2018-07-17T09:27:43.683Z,4.10
2018-07-17T09:30:12.194Z,3.80
2018-07-17T09:32:40.801Z,3.87
2018-07-17T09:35:09.316Z,4.30
2018-07-17T09:37:37.789Z,4.83
2018-07-17T09:40:06.311Z,4.80
2018-07-17T09:42:34.772Z,3.50
2018-07-17T09:45:03.274Z,3.87
2018-07-17T09:47:31.762Z,4.40
2018-07-17T09:50:00.182Z,3.93
2018-07-17T09:52:28.638Z,5.20
2018-07-17T09:54:57.144Z,4.90
2018-07-17T09:57:25.726Z,5.40
2018-07-17T09:59:54.178Z,4.80
2018-07-17T10:02:28.899Z,5.30
2018-07-17T10:04:58.373Z,4.60
2018-07-17T10:07:26.964Z,4.00
2018-07-17T10:09:55.488Z,4.90
2018-07-17T10:12:25.041Z,3.97
2018-07-17T10:14:53.617Z,5.13
2018-07-17T10:17:22.066Z,4.20
2018-07-17T10:19:50.533Z,4.80
2018-07-17T10:22:19.121Z,4.23
2018-07-17T10:24:47.629Z,5.00
2018-07-17T10:27:16.294Z,4.10
2018-07-17T10:29:45.547Z,3.57
2018-07-17T10:32:14.677Z,3.50
2018-07-17T10:34:43.166Z,4.30
2018-07-17T10:37:12.429Z,4.00
2018-07-17T10:39:41.112Z,4.80
2018-07-17T10:42:09.589Z,3.80
2018-07-17T10:44:38.582Z,3.67
2018-07-17T10:47:06.781Z,3.43
2018-07-17T10:49:35.293Z,3.93
2018-07-17T10:52:03.952Z,3.40
2018-07-17T10:54:32.434Z,3.37
2018-07-17T10:57:00.960Z,3.77
2018-07-17T10:59:29.427Z,3.80
2018-07-17T11:01:59.096Z,3.13
2018-07-17T11:04:27.642Z,3.53
2018-07-17T11:06:56.250Z,3.60
2018-07-17T11:09:24.716Z,2.67
2018-07-17T11:11:53.225Z,3.10
2018-07-17T11:14:22.106Z,2.60
2018-07-17T11:16:51.046Z,3.17
2018-07-17T11:19:19.590Z,3.73
2018-07-17T11:21:48.067Z,3.27
2018-07-17T11:24:17.543Z,2.90
2018-07-17T11:26:45.934Z,3.13
2018-07-17T11:29:14.470Z,2.83
2018-07-17T11:31:42.974Z,3.27
2018-07-17T11:34:11.461Z,4.30
2018-07-17T11:36:40.486Z,2.60
2018-07-17T11:39:09.898Z,3.73
2018-07-17T11:41:38.826Z,4.00
2018-07-17T11:44:07.521Z,3.70
2018-07-17T11:46:36.022Z,4.30
2018-07-17T11:49:04.581Z,4.00
2018-07-17T11:51:33.332Z,3.90
2018-07-17T11:54:02.078Z,4.30
2018-07-17T11:56:30.385Z,3.70
2018-07-17T11:58:58.842Z,3.73
2018-07-17T12:01:27.439Z,4.10
2018-07-17T12:03:56.083Z,3.03
2018-07-17T12:06:24.734Z,3.23
2018-07-17T12:08:53.274Z,3.13
2018-07-17T12:11:21.827Z,3.30
2018-07-17T12:13:50.311Z,3.93
2018-07-17T12:16:19.067Z,3.97
2018-07-17T12:18:47.545Z,3.77
2018-07-17T12:21:16.037Z,3.27
2018-07-17T12:23:44.589Z,3.70
2018-07-17T12:26:13.486Z,3.37
2018-07-17T12:28:41.989Z,3.47
2018-07-17T12:31:10.630Z,3.13
2018-07-17T12:33:39.180Z,3.40
2018-07-17T12:36:08.862Z,3.60
2018-07-17T12:38:37.797Z,3.90
2018-07-17T12:41:06.435Z,3.37
2018-07-17T12:43:35.666Z,3.23
2018-07-17T12:46:04.385Z,2.60
2018-07-17T12:48:32.867Z,3.03
2018-07-17T12:51:01.306Z,3.70
2018-07-17T12:53:30.027Z,3.63
2018-07-17T12:55:58.553Z,3.27
2018-07-17T12:58:27.037Z,3.47
2018-07-17T13:00:55.901Z,3.63
2018-07-17T13:03:24.630Z,3.07
2018-07-17T13:05:53.276Z,3.63
2018-07-17T13:08:22.152Z,3.13
2018-07-17T13:10:51.800Z,3.90
2018-07-17T13:13:20.288Z,2.87
2018-07-17T13:15:48.874Z,4.00
2018-07-17T13:18:17.317Z,3.13
2018-07-17T13:20:46.136Z,3.60
2018-07-17T13:23:14.901Z,3.63
2018-07-17T13:25:43.381Z,3.27
2018-07-17T13:28:11.949Z,3.93
2018-07-17T13:30:40.478Z,3.90
2018-07-17T13:33:09.135Z,3.23
2018-07-17T13:35:37.606Z,3.10
2018-07-17T13:38:06.714Z,2.40
2018-07-17T13:40:35.869Z,3.10
2018-07-17T13:43:04.680Z,2.20
2018-07-17T13:45:33.220Z,2.67
2018-07-17T13:48:01.693Z,2.17
2018-07-17T13:50:30.225Z,2.40
2018-07-17T13:52:58.714Z,2.60
2018-07-17T13:55:27.169Z,2.03
2018-07-17T13:57:55.726Z,2.30
2018-07-17T14:00:24.518Z,2.37
2018-07-17T14:02:53.116Z,2.00
2018-07-17T14:05:21.808Z,1.77
2018-07-17T14:07:49.968Z,1.80
2018-07-17T14:10:18.677Z,2.30
2018-07-17T14:12:47.403Z,1.73
2018-07-17T14:15:15.904Z,1.60
2018-07-17T14:17:44.593Z,1.70
2018-07-17T14:20:13.137Z,1.73
2018-07-17T14:22:41.995Z,1.80
2018-07-17T14:25:10.249Z,2.00
2018-07-17T14:27:39.098Z,1.80
2018-07-17T14:30:08.091Z,1.90
2018-07-17T14:32:36.634Z,2.67
2018-07-17T14:35:06.300Z,3.40
2018-07-17T14:37:34.936Z,3.30
2018-07-17T14:40:03.058Z,3.10
2018-07-17T14:42:31.558Z,3.03
2018-07-17T14:45:00.190Z,3.40
2018-07-17T14:47:28.729Z,2.90
2018-07-17T14:49:57.452Z,3.00
2018-07-17T14:52:26.170Z,3.70
2018-07-17T14:54:55.519Z,3.37
2018-07-17T14:57:23.993Z,3.60
2018-07-17T14:59:52.779Z,2.83
2018-07-17T15:02:21.463Z,3.13
2018-07-17T15:04:50.528Z,3.07
2018-07-17T15:07:19.369Z,2.77
2018-07-17T15:09:47.711Z,3.03
2018-07-17T15:12:16.228Z,2.30
2018-07-17T15:14:44.948Z,2.70
2018-07-17T15:17:13.464Z,2.23
2018-07-17T15:19:41.933Z,2.20
2018-07-17T15:22:11.049Z,3.20
2018-07-17T15:24:39.540Z,3.30
2018-07-17T15:27:08.054Z,2.70
2018-07-17T15:29:36.652Z,2.60
2018-07-17T15:32:05.300Z,3.63
2018-07-17T15:34:33.851Z,2.70
2018-07-17T15:37:02.506Z,2.83
2018-07-17T15:39:31.155Z,2.90
2018-07-17T15:41:59.804Z,2.90
2018-07-17T15:44:28.329Z,2.83
2018-07-17T15:46:56.811Z,3.00
2018-07-17T15:49:25.324Z,2.60
2018-07-17T15:51:54.231Z,3.10
2018-07-17T15:54:22.679Z,2.87
2018-07-17T15:56:52.159Z,2.80
2018-07-17T15:59:21.411Z,3.63
2018-07-17T16:01:49.901Z,3.13
2018-07-17T16:04:18.416Z,3.50
2018-07-17T16:06:46.923Z,3.10
2018-07-17T16:09:15.408Z,3.50
2018-07-17T16:11:43.832Z,3.77
2018-07-17T16:14:12.812Z,3.07
2018-07-17T16:16:40.868Z,3.27
2018-07-17T16:19:09.460Z,3.00
2018-07-17T16:21:38.958Z,3.63
2018-07-17T16:24:07.821Z,3.50
2018-07-17T16:26:36.366Z,3.60
2018-07-17T16:29:05.087Z,3.17
2018-07-17T16:31:33.583Z,4.30
2018-07-17T16:34:02.029Z,3.07
2018-07-17T16:36:30.516Z,2.77
2018-07-17T16:38:59.213Z,3.30
2018-07-17T16:41:27.776Z,3.47
2018-07-17T16:43:56.371Z,3.03
2018-07-17T16:46:25.094Z,2.90
2018-07-17T16:48:53.599Z,2.50
2018-07-17T16:51:22.414Z,3.27
2018-07-17T16:53:51.268Z,3.10
2018-07-17T16:56:19.861Z,3.13
2018-07-17T16:58:48.490Z,3.00
2018-07-17T17:01:17.539Z,3.60
2018-07-17T17:03:45.962Z,3.00
2018-07-17T17:06:14.101Z,3.10
2018-07-17T17:08:42.905Z,3.23
2018-07-17T17:11:11.414Z,2.77
2018-07-17T17:13:39.641Z,2.83
2018-07-17T17:16:08.193Z,3.27
2018-07-17T17:18:36.947Z,3.43
2018-07-17T17:21:05.516Z,3.20
2018-07-17T17:23:34.002Z,2.80
2018-07-17T17:26:02.547Z,3.00
2018-07-17T17:28:31.074Z,2.97
2018-07-17T17:30:59.600Z,3.23
2018-07-17T17:33:28.087Z,3.10
2018-07-17T17:35:56.593Z,3.13
2018-07-17T17:38:25.265Z,3.20
2018-07-17T17:40:53.814Z,3.20
2018-07-17T17:43:22.357Z,2.77
2018-07-17T17:45:50.831Z,2.90
2018-07-17T17:48:19.424Z,3.50
2018-07-17T17:50:48.685Z,3.17
2018-07-17T17:53:17.323Z,2.73
2018-07-17T17:55:45.997Z,2.73
2018-07-17T17:58:14.524Z,2.87
2018-07-17T18:00:43.498Z,3.40
2018-07-17T18:03:12.097Z,2.97
2018-07-17T18:05:40.860Z,3.90
2018-07-17T18:08:08.956Z,3.27
2018-07-17T18:10:37.494Z,3.40
2018-07-17T18:13:06.597Z,3.17
2018-07-17T18:15:41.803Z,2.97
2018-07-17T18:18:11.104Z,3.23
2018-07-17T18:20:39.872Z,3.40
2018-07-17T18:23:08.751Z,3.40
2018-07-17T18:25:37.403Z,4.37
2018-07-17T18:28:06.013Z,3.30
2018-07-17T18:30:34.176Z,3.70
2018-07-17T18:33:02.735Z,3.73
2018-07-17T18:35:31.487Z,3.73
2018-07-17T18:38:00.677Z,3.20
2018-07-17T18:40:29.686Z,3.73
2018-07-17T18:42:58.186Z,3.57
2018-07-17T18:45:26.699Z,3.03
2018-07-17T18:47:56.082Z,3.63
2018-07-17T18:50:24.643Z,4.43
2018-07-17T18:52:53.231Z,3.67
2018-07-17T18:55:22.840Z,3.13
2018-07-17T18:57:51.396Z,3.70
2018-07-17T19:00:19.940Z,3.97
2018-07-17T19:02:48.433Z,3.23
2018-07-17T19:05:17.020Z,3.53
2018-07-17T19:07:45.779Z,3.60
2018-07-17T19:10:14.157Z,4.20
2018-07-17T19:12:42.776Z,4.10
2018-07-17T19:15:11.259Z,3.70
2018-07-17T19:17:39.778Z,3.87
2018-07-17T19:20:08.269Z,3.37
2018-07-17T19:22:36.989Z,3.90
2018-07-17T19:25:05.538Z,3.60
2018-07-17T19:27:34.056Z,4.00
2018-07-17T19:30:02.607Z,4.00
2018-07-17T19:32:31.291Z,4.50
2018-07-17T19:35:00.118Z,3.03
2018-07-17T19:37:28.731Z,3.60
2018-07-17T19:39:57.459Z,3.40
2018-07-17T19:42:25.979Z,3.50
2018-07-17T19:44:55.951Z,4.17
2018-07-17T19:47:24.585Z,3.60
2018-07-17T19:49:53.057Z,8.20
2018-07-17T19:52:21.744Z,4.20
2018-07-17T19:54:50.350Z,4.50
2018-07-17T19:57:18.857Z,4.30
2018-07-17T19:59:47.439Z,3.87
2018-07-17T20:02:16.133Z,4.70
2018-07-17T20:04:44.674Z,4.20
2018-07-17T20:07:13.235Z,3.97
2018-07-17T20:09:42.238Z,3.90
2018-07-17T20:12:11.030Z,4.20
2018-07-17T20:14:39.533Z,4.37
2018-07-17T20:17:14.558Z,4.53
2018-07-17T20:19:43.091Z,4.03
2018-07-17T20:22:11.594Z,3.83
2018-07-17T20:24:40.223Z,5.50
2018-07-17T20:27:08.818Z,4.40
2018-07-17T20:29:37.375Z,4.40
2018-07-17T20:32:06.145Z,4.73
2018-07-17T20:34:34.626Z,3.83
2018-07-17T20:37:03.541Z,4.93
2018-07-17T20:39:32.674Z,4.00
2018-07-17T20:42:01.171Z,4.50
2018-07-17T20:44:36.286Z,4.50
2018-07-17T20:47:04.939Z,3.63
2018-07-17T20:49:33.386Z,5.40
2018-07-17T20:52:01.896Z,4.20
2018-07-17T20:54:30.409Z,4.23
2018-07-17T20:57:05.778Z,4.97
2018-07-17T20:59:34.372Z,4.60
2018-07-17T21:02:02.829Z,5.40
2018-07-17T21:04:31.815Z,4.30
2018-07-17T21:07:00.669Z,4.53
2018-07-17T21:09:29.342Z,4.23
2018-07-17T21:11:57.860Z,4.17
2018-07-17T21:14:26.430Z,3.80
2018-07-17T21:16:54.920Z,4.57
2018-07-17T21:19:23.424Z,4.83
2018-07-17T21:21:51.885Z,4.10
2018-07-17T21:24:20.397Z,3.90
2018-07-17T21:26:48.913Z,3.90
2018-07-17T21:29:17.414Z,4.20
2018-07-17T21:31:45.964Z,4.87
2018-07-17T21:34:14.570Z,4.50
2018-07-17T21:36:43.032Z,6.10
2018-07-17T21:39:12.377Z,4.27
2018-07-17T21:41:40.935Z,5.00
2018-07-17T21:44:09.429Z,4.53
2018-07-17T21:46:37.946Z,5.80
2018-07-17T21:49:06.478Z,5.03
2018-07-17T21:51:34.980Z,4.90
2018-07-17T21:54:03.402Z,4.37
2018-07-17T21:56:31.890Z,4.27
2018-07-17T21:59:01.630Z,3.77
2018-07-17T22:01:30.093Z,4.60
2018-07-17T22:03:58.607Z,4.37
2018-07-17T22:06:27.292Z,5.27
2018-07-17T22:08:55.740Z,4.10
2018-07-17T22:11:24.346Z,4.20
2018-07-17T22:13:52.852Z,3.90
2018-07-17T22:16:21.366Z,4.27
2018-07-17T22:18:49.823Z,4.90
2018-07-17T22:21:18.457Z,3.83
2018-07-17T22:23:47.097Z,3.63
2018-07-17T22:26:15.241Z,3.70
2018-07-17T22:28:43.720Z,4.53
2018-07-17T22:31:15.082Z,3.67
2018-07-17T22:33:43.699Z,3.50
2018-07-17T22:36:12.286Z,4.40
2018-07-17T22:38:40.786Z,4.07
2018-07-17T22:41:09.273Z,4.10
2018-07-17T22:43:37.749Z,3.60
2018-07-17T22:46:06.522Z,4.30
2018-07-17T22:48:35.397Z,3.83
2018-07-17T22:51:03.757Z,4.80
2018-07-17T22:53:32.212Z,4.17
2018-07-17T22:56:00.602Z,4.13
2018-07-17T22:58:32.062Z,4.13
2018-07-17T23:01:00.599Z,4.17
2018-07-17T23:03:29.118Z,3.83
2018-07-17T23:05:58.275Z,4.10
2018-07-17T23:08:26.770Z,4.20
2018-07-17T23:10:55.245Z,4.07
2018-07-17T23:13:23.763Z,4.30
2018-07-17T23:15:52.230Z,4.87
2018-07-17T23:18:20.738Z,3.63
2018-07-17T23:20:49.169Z,4.43
2018-07-17T23:23:17.845Z,5.40
2018-07-17T23:25:46.473Z,4.60
2018-07-17T23:28:15.255Z,5.43
2018-07-17T23:30:43.845Z,4.30
2018-07-17T23:33:12.442Z,5.20
2018-07-17T23:35:41.028Z,4.60
2018-07-17T23:38:09.662Z,4.93
2018-07-17T23:40:38.251Z,5.00
2018-07-17T23:43:06.874Z,5.30
2018-07-17T23:45:35.425Z,5.57
2018-07-17T23:48:04.218Z,5.30
2018-07-17T23:50:32.870Z,4.97
2018-07-17T23:53:01.474Z,4.97
2018-07-17T23:55:36.810Z,4.60
2018-07-17T23:58:05.615Z,5.00
